createdAt,value
2018-05-25T00:02:25.836Z,92.58
2018-05-25T00:04:51.699Z,93.14
2018-05-25T00:07:17.553Z,93.04
2018-05-25T00:09:43.417Z,92.99
2018-05-25T00:12:09.297Z,92.73
2018-05-25T00:14:35.187Z,92.95
2018-05-25T00:17:01.105Z,92.76
2018-05-25T00:19:26.959Z,93.07
2018-05-25T00:21:52.829Z,92.09
2018-05-25T00:24:18.690Z,90.34
2018-05-25T00:26:44.573Z,91.37
2018-05-25T00:29:10.416Z,91.94
2018-05-25T00:31:36.274Z,92.46
2018-05-25T00:34:02.129Z,92.44
2018-05-25T00:36:28.012Z,92.27
2018-05-25T00:38:53.880Z,93.29
2018-05-25T00:41:19.710Z,93.06
2018-05-25T00:43:45.586Z,93.22
2018-05-25T00:46:11.457Z,94.25
2018-05-25T00:48:37.334Z,94.36
2018-05-25T00:51:03.194Z,93.76
2018-05-25T00:53:29.074Z,93.99
2018-05-25T00:55:54.964Z,93.26
2018-05-25T00:58:20.821Z,93.02
2018-05-25T01:00:46.645Z,92.81
2018-05-25T01:03:12.520Z,92.40
2018-05-25T01:05:38.376Z,91.99
2018-05-25T01:08:04.258Z,92.44
2018-05-25T01:10:30.164Z,91.89
2018-05-25T01:12:56.016Z,92.01
2018-05-25T01:15:21.882Z,91.36
2018-05-25T01:17:47.726Z,90.71
2018-05-25T01:20:13.592Z,90.42
2018-05-25T01:22:39.474Z,89.45
2018-05-25T01:25:05.397Z,89.58
2018-05-25T01:27:31.288Z,90.50
2018-05-25T01:29:57.169Z,90.96
2018-05-25T01:32:23.006Z,90.70
2018-05-25T01:34:48.863Z,91.62
2018-05-25T01:37:14.744Z,92.06
2018-05-25T01:39:40.645Z,91.85
2018-05-25T01:42:06.477Z,91.94
2018-05-25T01:44:32.360Z,92.55
2018-05-25T01:46:58.241Z,92.95
2018-05-25T01:49:24.121Z,92.78
2018-05-25T01:51:49.993Z,93.08
2018-05-25T01:54:15.862Z,93.30
2018-05-25T01:56:41.761Z,93.17
2018-05-25T01:59:07.611Z,92.75
2018-05-25T02:01:33.477Z,92.36
2018-05-25T02:03:59.350Z,92.33
2018-05-25T02:06:25.230Z,92.10
2018-05-25T02:08:51.073Z,92.49
2018-05-25T02:11:17.018Z,89.96
2018-05-25T02:13:42.849Z,89.12
2018-05-25T02:16:08.729Z,90.26
2018-05-25T02:18:34.621Z,90.88
2018-05-25T02:21:00.469Z,90.24
2018-05-25T02:23:26.327Z,89.79
2018-05-25T02:25:52.169Z,90.03
2018-05-25T02:28:18.027Z,90.37
2018-05-25T02:30:43.903Z,90.81
2018-05-25T02:33:09.778Z,91.14
2018-05-25T02:35:35.649Z,91.05
2018-05-25T02:38:01.519Z,91.31
2018-05-25T02:40:27.364Z,91.88
2018-05-25T02:42:53.214Z,92.28
2018-05-25T02:45:19.088Z,92.09
2018-05-25T02:47:44.965Z,90.52
2018-05-25T02:50:10.837Z,90.80
2018-05-25T02:52:36.699Z,91.89
2018-05-25T02:55:02.636Z,91.05
2018-05-25T02:57:28.525Z,89.96
2018-05-25T02:59:54.381Z,90.08
2018-05-25T03:02:20.236Z,89.91
2018-05-25T03:04:46.105Z,90.33
2018-05-25T03:07:11.982Z,91.06
2018-05-25T03:09:37.867Z,91.78
2018-05-25T03:12:03.762Z,92.49
2018-05-25T03:14:29.615Z,92.90
2018-05-25T03:16:55.477Z,93.46
2018-05-25T03:19:21.333Z,92.88
2018-05-25T03:21:47.213Z,92.75
2018-05-25T03:24:13.067Z,92.53
2018-05-25T03:26:38.963Z,92.27
2018-05-25T03:29:04.829Z,92.23
2018-05-25T03:31:30.712Z,92.13
2018-05-25T03:33:56.588Z,93.28
2018-05-25T03:36:22.483Z,92.79
2018-05-25T03:38:48.329Z,92.41
2018-05-25T03:41:14.181Z,92.61
2018-05-25T03:43:40.023Z,92.69
2018-05-25T03:46:05.866Z,93.61
2018-05-25T03:48:31.709Z,92.82
2018-05-25T03:50:57.556Z,92.33
2018-05-25T03:53:23.389Z,92.86
2018-05-25T03:55:49.224Z,92.47
2018-05-25T03:58:15.089Z,92.76
2018-05-25T04:00:53.270Z,92.08
2018-05-25T04:03:19.138Z,90.93
2018-05-25T04:05:44.964Z,91.25
2018-05-25T04:08:10.808Z,91.55
2018-05-25T04:10:36.637Z,91.69
2018-05-25T04:13:02.513Z,92.55
2018-05-25T04:15:28.400Z,92.64
2018-05-25T04:17:54.236Z,93.22
2018-05-25T04:20:20.077Z,92.46
2018-05-25T04:22:45.924Z,92.78
2018-05-25T04:25:11.757Z,93.13
2018-05-25T04:27:37.604Z,92.61
2018-05-25T04:30:03.476Z,92.57
2018-05-25T04:32:29.310Z,92.53
2018-05-25T04:34:55.173Z,93.55
2018-05-25T04:37:21.020Z,93.01
2018-05-25T04:39:46.827Z,92.68
2018-05-25T04:42:12.652Z,92.42
2018-05-25T04:44:38.493Z,92.61
2018-05-25T04:47:04.329Z,93.38
2018-05-25T04:49:30.173Z,93.64
2018-05-25T04:51:56.037Z,93.30
2018-05-25T04:54:21.892Z,92.91
2018-05-25T04:56:47.728Z,92.10
2018-05-25T04:59:13.558Z,91.54
2018-05-25T05:01:39.416Z,91.66
2018-05-25T05:04:05.261Z,91.89
2018-05-25T05:06:31.134Z,92.98
2018-05-25T05:08:56.964Z,93.01
2018-05-25T05:11:22.809Z,92.98
2018-05-25T05:13:48.652Z,92.17
2018-05-25T05:16:14.497Z,91.63
2018-05-25T05:18:40.384Z,91.16
2018-05-25T05:21:06.237Z,90.89
2018-05-25T05:23:32.097Z,91.15
2018-05-25T05:25:57.922Z,92.28
2018-05-25T05:28:23.775Z,91.67
2018-05-25T05:30:49.598Z,92.23
2018-05-25T05:33:15.436Z,92.76
2018-05-25T05:35:41.281Z,93.17
2018-05-25T05:38:07.132Z,93.73
2018-05-25T05:40:32.965Z,93.19
2018-05-25T05:42:58.792Z,91.94
2018-05-25T05:45:24.690Z,92.21
2018-05-25T05:47:50.534Z,91.22
2018-05-25T05:50:16.373Z,89.50
2018-05-25T05:52:42.221Z,88.34
2018-05-25T05:55:08.050Z,87.90
2018-05-25T05:57:33.881Z,87.20
2018-05-25T05:59:59.725Z,86.84
2018-05-25T06:02:25.584Z,86.38
2018-05-25T06:04:51.434Z,84.86
2018-05-25T06:07:17.256Z,84.32
2018-05-25T06:09:43.132Z,84.12
2018-05-25T06:12:08.986Z,82.87
2018-05-25T06:14:34.811Z,82.33
2018-05-25T06:17:00.761Z,81.78
2018-05-25T06:19:26.612Z,81.42
2018-05-25T06:21:52.465Z,84.01
2018-05-25T06:24:18.282Z,82.39
2018-05-25T06:26:44.125Z,81.87
2018-05-25T06:29:09.956Z,80.31
2018-05-25T06:31:35.826Z,79.45
2018-05-25T06:34:01.642Z,80.75
2018-05-25T06:36:27.486Z,82.55
2018-05-25T06:38:53.304Z,81.53
2018-05-25T06:41:19.141Z,80.84
2018-05-25T06:43:45.000Z,81.37
2018-05-25T06:46:10.850Z,82.31
2018-05-25T06:48:36.701Z,85.03
2018-05-25T06:51:02.547Z,84.74
2018-05-25T06:53:28.377Z,85.06
2018-05-25T06:55:54.221Z,83.27
2018-05-25T06:58:20.069Z,83.08
2018-05-25T07:00:45.933Z,83.77
2018-05-25T07:03:11.791Z,84.56
2018-05-25T07:05:37.624Z,84.20
2018-05-25T07:08:03.482Z,83.05
2018-05-25T07:10:29.359Z,80.32
2018-05-25T07:12:55.209Z,81.26
2018-05-25T07:15:21.138Z,79.14
2018-05-25T07:17:46.988Z,79.48
2018-05-25T07:20:12.834Z,80.71
2018-05-25T07:22:38.667Z,79.89
2018-05-25T07:25:04.550Z,79.85
2018-05-25T07:27:30.386Z,79.90
2018-05-25T07:29:56.215Z,78.43
2018-05-25T07:32:22.057Z,78.75
2018-05-25T07:34:47.865Z,78.71
2018-05-25T07:37:20.461Z,79.19
2018-05-25T07:39:46.313Z,78.91
2018-05-25T07:42:12.204Z,78.74
2018-05-25T07:44:38.073Z,79.04
2018-05-25T07:47:03.916Z,79.28
2018-05-25T07:49:29.773Z,78.44
2018-05-25T07:51:55.624Z,79.27
2018-05-25T07:54:21.504Z,79.67
2018-05-25T07:56:47.376Z,78.13
2018-05-25T07:59:13.231Z,76.32
2018-05-25T08:01:39.051Z,77.78
2018-05-25T08:04:04.894Z,77.06
2018-05-25T08:06:30.738Z,74.61
2018-05-25T08:08:56.608Z,76.76
2018-05-25T08:11:22.477Z,78.37
2018-05-25T08:13:48.349Z,75.54
2018-05-25T08:16:14.225Z,76.92
2018-05-25T08:18:40.073Z,76.15
2018-05-25T08:21:05.899Z,74.67
2018-05-25T08:23:31.744Z,76.69
2018-05-25T08:25:57.567Z,75.72
2018-05-25T08:28:23.433Z,72.95
2018-05-25T08:30:49.262Z,74.57
2018-05-25T08:33:15.140Z,73.87
2018-05-25T08:35:40.996Z,73.30
2018-05-25T08:38:06.825Z,71.21
2018-05-25T08:40:32.663Z,71.26
2018-05-25T08:42:58.512Z,70.67
2018-05-25T08:45:24.381Z,70.21
2018-05-25T08:47:50.220Z,71.39
2018-05-25T08:50:16.067Z,69.56
2018-05-25T08:52:41.920Z,70.58
2018-05-25T08:55:07.811Z,70.61
2018-05-25T08:57:33.605Z,69.67
2018-05-25T08:59:59.469Z,69.15
2018-05-25T09:02:25.328Z,71.66
2018-05-25T09:04:51.391Z,70.17
2018-05-25T09:07:17.006Z,71.60
2018-05-25T09:09:42.881Z,73.94
2018-05-25T09:12:08.712Z,73.03
2018-05-25T09:14:34.543Z,71.44
2018-05-25T09:17:00.468Z,72.04
2018-05-25T09:19:26.321Z,70.89
2018-05-25T09:21:52.197Z,70.60
2018-05-25T09:24:18.024Z,70.87
2018-05-25T09:26:43.869Z,71.01
2018-05-25T09:29:09.705Z,72.14
2018-05-25T09:31:35.556Z,72.34
2018-05-25T09:34:01.388Z,71.31
2018-05-25T09:36:27.224Z,70.65
2018-05-25T09:38:53.053Z,70.30
2018-05-25T09:41:18.902Z,70.60
2018-05-25T09:43:44.748Z,73.74
2018-05-25T09:46:10.593Z,72.13
2018-05-25T09:48:36.421Z,72.23
2018-05-25T09:51:02.265Z,70.74
2018-05-25T09:53:28.128Z,68.66
2018-05-25T09:55:53.952Z,68.24
2018-05-25T09:58:19.795Z,68.49
2018-05-25T10:00:45.628Z,68.46
2018-05-25T10:03:11.508Z,69.21
2018-05-25T10:05:37.344Z,68.34
2018-05-25T10:08:03.209Z,67.74
2018-05-25T10:10:29.032Z,69.25
2018-05-25T10:12:54.876Z,68.73
2018-05-25T10:15:20.711Z,68.12
2018-05-25T10:17:46.549Z,67.38
2018-05-25T10:20:12.420Z,66.66
2018-05-25T10:22:38.249Z,67.18
2018-05-25T10:25:04.157Z,63.49
2018-05-25T10:27:30.004Z,63.89
2018-05-25T10:29:55.888Z,64.10
2018-05-25T10:32:21.769Z,65.13
2018-05-25T10:34:47.641Z,65.39
2018-05-25T10:37:13.480Z,65.79
2018-05-25T10:39:39.345Z,66.79
2018-05-25T10:42:05.172Z,66.77
2018-05-25T10:44:31.042Z,68.24
2018-05-25T10:46:56.847Z,68.49
2018-05-25T10:49:22.665Z,68.02
2018-05-25T10:51:48.535Z,67.63
2018-05-25T10:54:14.397Z,67.79
2018-05-25T10:56:40.236Z,67.13
2018-05-25T10:59:06.042Z,67.06
2018-05-25T11:01:31.904Z,68.06
2018-05-25T11:03:57.741Z,68.97
2018-05-25T11:06:23.608Z,67.44
2018-05-25T11:08:49.440Z,68.43
2018-05-25T11:11:15.269Z,69.63
2018-05-25T11:13:41.110Z,69.58
2018-05-25T11:16:07.022Z,68.56
2018-05-25T11:18:32.858Z,67.65
2018-05-25T11:20:58.741Z,67.30
2018-05-25T11:23:24.557Z,66.64
2018-05-25T11:25:50.393Z,67.67
2018-05-25T11:28:16.233Z,66.14
2018-05-25T11:30:42.053Z,66.82
2018-05-25T11:33:07.901Z,64.94
2018-05-25T11:35:33.730Z,63.35
2018-05-25T11:37:59.580Z,64.26
2018-05-25T11:40:25.432Z,64.04
2018-05-25T11:42:51.319Z,64.50
2018-05-25T11:45:17.174Z,64.06
2018-05-25T11:47:43.035Z,61.89
2018-05-25T11:50:08.881Z,62.05
2018-05-25T11:52:34.689Z,63.17
2018-05-25T11:55:00.579Z,61.55
2018-05-25T11:57:26.444Z,58.74
2018-05-25T11:59:52.289Z,58.35
2018-05-25T12:02:18.124Z,59.67
2018-05-25T12:04:43.953Z,59.20
2018-05-25T12:07:09.796Z,58.48
2018-05-25T12:09:35.701Z,60.93
2018-05-25T12:12:01.552Z,61.72
2018-05-25T12:14:27.377Z,61.67
2018-05-25T12:16:53.333Z,61.08
2018-05-25T12:19:19.201Z,61.86
2018-05-25T12:21:45.049Z,63.33
2018-05-25T12:24:10.901Z,64.56
2018-05-25T12:26:36.741Z,65.02
2018-05-25T12:29:02.597Z,63.22
2018-05-25T12:31:28.465Z,62.69
2018-05-25T12:33:54.326Z,64.53
2018-05-25T12:36:20.139Z,65.22
2018-05-25T12:38:46.022Z,64.05
2018-05-25T12:41:11.892Z,63.89
2018-05-25T12:43:37.733Z,63.72
2018-05-25T12:46:03.581Z,64.28
2018-05-25T12:48:29.417Z,64.92
2018-05-25T12:50:55.248Z,64.96
2018-05-25T12:53:21.099Z,62.97
2018-05-25T12:55:46.945Z,64.42
2018-05-25T12:58:12.784Z,65.91
2018-05-25T13:00:38.608Z,65.43
2018-05-25T13:03:04.448Z,65.26
2018-05-25T13:05:30.309Z,63.08
2018-05-25T13:07:56.184Z,61.71
2018-05-25T13:10:22.060Z,63.14
2018-05-25T13:12:47.912Z,62.65
2018-05-25T13:15:13.832Z,69.08
2018-05-25T13:17:39.681Z,70.61
2018-05-25T13:20:05.541Z,72.81
2018-05-25T13:22:31.386Z,72.84
2018-05-25T13:24:57.242Z,73.08
2018-05-25T13:27:23.085Z,75.07
2018-05-25T13:29:48.988Z,74.42
2018-05-25T13:32:14.826Z,75.12
2018-05-25T13:34:40.653Z,76.00
2018-05-25T13:37:06.513Z,75.99
2018-05-25T13:39:32.368Z,76.34
2018-05-25T13:41:58.223Z,77.23
2018-05-25T13:44:24.033Z,77.68
2018-05-25T13:46:49.885Z,78.25
2018-05-25T13:49:15.726Z,78.29
2018-05-25T13:51:41.580Z,78.83
2018-05-25T13:54:07.425Z,78.79
2018-05-25T13:56:33.271Z,78.83
2018-05-25T13:58:59.121Z,80.30
2018-05-25T14:01:24.981Z,79.35
2018-05-25T14:03:50.824Z,79.38
2018-05-25T14:06:16.705Z,79.10
2018-05-25T14:08:42.529Z,78.91
2018-05-25T14:11:08.381Z,78.73
2018-05-25T14:13:34.244Z,78.52
2018-05-25T14:16:00.177Z,77.38
2018-05-25T14:18:26.056Z,77.59
2018-05-25T14:20:51.873Z,77.67
2018-05-25T14:23:17.734Z,79.19
2018-05-25T14:25:43.591Z,78.62
2018-05-25T14:28:09.433Z,77.61
2018-05-25T14:30:35.292Z,77.25
2018-05-25T14:33:01.161Z,74.36
2018-05-25T14:35:27.017Z,73.87
2018-05-25T14:37:52.890Z,72.98
2018-05-25T14:40:18.753Z,66.72
2018-05-25T14:42:44.610Z,60.14
2018-05-25T14:45:10.480Z,58.81
2018-05-25T14:47:36.318Z,58.38
2018-05-25T14:50:02.194Z,57.06
2018-05-25T14:52:28.081Z,56.57
2018-05-25T14:54:53.947Z,56.63
2018-05-25T14:57:20.627Z,55.51
2018-05-25T14:59:46.513Z,55.18
2018-05-25T15:02:12.399Z,55.00
2018-05-25T15:04:38.225Z,55.43
2018-05-25T15:07:04.072Z,55.86
2018-05-25T15:09:29.944Z,56.69
2018-05-25T15:11:55.841Z,55.83
2018-05-25T15:14:21.636Z,55.94
2018-05-25T15:16:47.544Z,56.78
2018-05-25T15:19:13.436Z,57.40
2018-05-25T15:21:39.298Z,57.13
2018-05-25T15:24:05.335Z,58.47
2018-05-25T15:26:31.204Z,58.08
2018-05-25T15:28:57.538Z,58.26
2018-05-25T15:31:23.781Z,59.01
2018-05-25T15:33:50.028Z,58.64
2018-05-25T15:36:16.273Z,58.74
2018-05-25T15:38:42.403Z,58.98
2018-05-25T15:41:08.645Z,59.44
2018-05-25T15:43:34.906Z,60.21
2018-05-25T15:46:01.142Z,59.76
2018-05-25T15:48:27.409Z,59.74
2018-05-25T15:50:53.648Z,58.88
2018-05-25T15:53:20.997Z,58.57
2018-05-25T15:55:47.730Z,59.58
2018-05-25T15:58:13.993Z,58.06
2018-05-25T16:00:40.156Z,56.39
2018-05-25T16:03:06.752Z,55.45
2018-05-25T16:05:33.024Z,53.47
2018-05-25T16:07:59.293Z,53.86
2018-05-25T16:10:25.586Z,54.13
2018-05-25T16:12:51.727Z,54.89
2018-05-25T16:15:18.078Z,54.66
2018-05-25T16:17:44.327Z,55.80
2018-05-25T16:20:10.512Z,55.19
2018-05-25T16:22:36.714Z,55.75
2018-05-25T16:25:03.071Z,56.33
2018-05-25T16:27:29.508Z,56.29
2018-05-25T16:29:55.509Z,56.55
2018-05-25T16:32:21.945Z,58.08
2018-05-25T16:34:48.305Z,58.29
2018-05-25T16:37:14.568Z,58.05
2018-05-25T16:39:40.800Z,58.39
2018-05-25T16:42:07.889Z,58.23
2018-05-25T16:44:34.132Z,59.49
2018-05-25T16:47:00.659Z,58.81
2018-05-25T16:49:26.872Z,58.24
2018-05-25T16:51:53.147Z,59.04
2018-05-25T16:54:19.539Z,59.23
2018-05-25T16:56:46.160Z,58.75
2018-05-25T16:59:12.118Z,57.71
2018-05-25T17:01:38.211Z,58.50
2018-05-25T17:04:04.612Z,57.70
2018-05-25T17:06:30.904Z,58.17
2018-05-25T17:08:56.990Z,58.40
2018-05-25T17:11:23.218Z,58.39
2018-05-25T17:13:49.514Z,58.07
2018-05-25T17:16:15.856Z,57.32
2018-05-25T17:18:42.230Z,58.45
2018-05-25T17:21:08.508Z,60.00
2018-05-25T17:23:34.804Z,58.11
2018-05-25T17:26:01.374Z,60.23
2018-05-25T17:28:27.962Z,60.41
2018-05-25T17:30:54.621Z,59.65
2018-05-25T17:33:20.642Z,61.25
2018-05-25T17:35:46.584Z,60.56
2018-05-25T17:38:12.453Z,58.89
2018-05-25T17:40:38.296Z,59.13
2018-05-25T17:43:04.224Z,59.76
2018-05-25T17:45:30.089Z,60.15
2018-05-25T17:47:55.908Z,59.65
2018-05-25T17:50:21.781Z,61.27
2018-05-25T17:52:47.637Z,60.94
2018-05-25T17:55:13.546Z,60.73
2018-05-25T17:57:39.493Z,60.40
2018-05-25T18:00:05.390Z,60.62
2018-05-25T18:02:31.273Z,61.12
2018-05-25T18:04:57.124Z,61.24
2018-05-25T18:07:22.997Z,61.11
2018-05-25T18:09:48.874Z,61.55
2018-05-25T18:12:14.764Z,61.72
2018-05-25T18:14:40.623Z,62.39
2018-05-25T18:17:06.462Z,62.76
2018-05-25T18:19:32.337Z,62.54
2018-05-25T18:21:58.187Z,62.61
2018-05-25T18:24:24.083Z,63.47
2018-05-25T18:26:49.939Z,64.27
2018-05-25T18:29:15.805Z,63.71
2018-05-25T18:31:41.654Z,64.48
2018-05-25T18:34:07.513Z,65.72
2018-05-25T18:36:33.401Z,66.54
2018-05-25T18:38:59.286Z,67.37
2018-05-25T18:41:25.129Z,67.71
2018-05-25T18:43:51.011Z,68.46
2018-05-25T18:46:16.838Z,68.76
2018-05-25T18:48:42.665Z,68.80
2018-05-25T18:51:08.506Z,69.31
2018-05-25T18:53:34.377Z,70.37
2018-05-25T18:56:00.238Z,70.83
2018-05-25T18:58:26.141Z,71.29
2018-05-25T19:00:52.021Z,71.56
2018-05-25T19:03:17.880Z,71.05
2018-05-25T19:05:43.752Z,72.13
2018-05-25T19:08:09.628Z,73.16
2018-05-25T19:10:35.477Z,73.73
2018-05-25T19:13:01.327Z,74.44
2018-05-25T19:15:27.220Z,73.84
2018-05-25T19:17:53.084Z,73.72
2018-05-25T19:20:18.933Z,74.19
2018-05-25T19:22:44.770Z,74.31
2018-05-25T19:25:10.606Z,74.67
2018-05-25T19:27:36.476Z,74.84
2018-05-25T19:30:02.329Z,73.60
2018-05-25T19:32:28.242Z,72.82
2018-05-25T19:34:54.036Z,73.02
2018-05-25T19:37:19.878Z,73.54
2018-05-25T19:39:45.737Z,74.78
2018-05-25T19:42:11.588Z,75.27
2018-05-25T19:44:37.415Z,75.71
2018-05-25T19:47:03.254Z,76.29
2018-05-25T19:49:29.114Z,77.07
2018-05-25T19:51:54.980Z,77.51
2018-05-25T19:54:20.836Z,78.04
2018-05-25T19:56:46.700Z,78.05
2018-05-25T19:59:12.547Z,78.48
2018-05-25T20:01:38.400Z,77.47
2018-05-25T20:04:04.326Z,77.08
2018-05-25T20:06:30.150Z,76.57
2018-05-25T20:08:56.057Z,76.86
2018-05-25T20:11:21.905Z,79.27
2018-05-25T20:13:47.786Z,80.18
2018-05-25T20:16:13.819Z,81.26
2018-05-25T20:18:39.735Z,80.23
2018-05-25T20:21:12.521Z,79.99
2018-05-25T20:23:38.402Z,79.40
2018-05-25T20:26:04.250Z,80.61
2018-05-25T20:28:30.097Z,81.14
2018-05-25T20:30:55.978Z,81.52
2018-05-25T20:33:21.858Z,82.92
2018-05-25T20:35:47.750Z,82.89
2018-05-25T20:38:13.593Z,82.62
2018-05-25T20:40:39.501Z,81.90
2018-05-25T20:43:05.379Z,82.03
2018-05-25T20:45:31.260Z,82.19
2018-05-25T20:47:57.116Z,82.77
2018-05-25T20:50:22.990Z,82.21
2018-05-25T20:52:48.882Z,82.11
2018-05-25T20:55:14.774Z,81.85
2018-05-25T20:57:40.634Z,81.44
2018-05-25T21:00:06.525Z,80.94
2018-05-25T21:02:32.396Z,80.98
2018-05-25T21:04:58.306Z,81.71
2018-05-25T21:07:24.221Z,82.99
2018-05-25T21:09:50.135Z,83.01
2018-05-25T21:12:16.058Z,83.07
2018-05-25T21:14:41.896Z,83.05
2018-05-25T21:17:07.873Z,83.20
2018-05-25T21:19:33.741Z,82.17
2018-05-25T21:21:59.630Z,81.93
2018-05-25T21:24:25.521Z,82.32
2018-05-25T21:26:51.427Z,82.45
2018-05-25T21:29:17.290Z,83.31
2018-05-25T21:31:43.156Z,83.68
2018-05-25T21:34:09.019Z,83.32
2018-05-25T21:36:34.904Z,83.42
2018-05-25T21:39:00.778Z,83.47
2018-05-25T21:41:26.639Z,83.51
2018-05-25T21:43:52.554Z,84.24
2018-05-25T21:46:18.417Z,85.08
2018-05-25T21:48:44.314Z,84.56
2018-05-25T21:51:10.178Z,84.01
2018-05-25T21:53:36.062Z,83.91
2018-05-25T21:56:01.954Z,83.63
2018-05-25T21:58:27.841Z,83.41
2018-05-25T22:00:53.730Z,83.58
2018-05-25T22:03:19.578Z,84.71
2018-05-25T22:05:45.476Z,84.79
2018-05-25T22:08:11.391Z,84.83
2018-05-25T22:10:37.250Z,84.56
2018-05-25T22:13:03.102Z,83.86
2018-05-25T22:15:28.993Z,83.15
2018-05-25T22:17:54.857Z,83.44
2018-05-25T22:20:20.733Z,83.08
2018-05-25T22:22:46.615Z,83.67
2018-05-25T22:25:12.505Z,83.85
2018-05-25T22:27:38.369Z,84.26
2018-05-25T22:30:04.270Z,84.21
2018-05-25T22:32:30.161Z,84.58
2018-05-25T22:34:56.061Z,85.26
2018-05-25T22:37:21.965Z,85.00
2018-05-25T22:39:47.809Z,84.79
2018-05-25T22:42:26.038Z,84.53
2018-05-25T22:45:04.146Z,84.44
2018-05-25T22:47:42.303Z,84.49
2018-05-25T22:50:20.422Z,84.59
2018-05-25T22:52:52.175Z,85.08
2018-05-25T22:55:18.050Z,85.78
2018-05-25T22:57:43.894Z,85.10
2018-05-25T23:00:09.803Z,84.59
2018-05-25T23:02:35.661Z,84.28
2018-05-25T23:05:01.529Z,85.00
2018-05-25T23:07:27.400Z,85.54
2018-05-25T23:09:53.250Z,84.97
2018-05-25T23:12:19.109Z,84.13
2018-05-25T23:14:44.963Z,84.43
2018-05-25T23:17:10.912Z,83.88
2018-05-25T23:19:37.031Z,84.33
2018-05-25T23:22:02.920Z,84.70
2018-05-25T23:24:28.789Z,85.16
2018-05-25T23:26:54.662Z,85.20
2018-05-25T23:29:20.558Z,86.88
2018-05-25T23:31:46.422Z,87.41
2018-05-25T23:34:12.307Z,88.38
2018-05-25T23:36:38.156Z,87.30
2018-05-25T23:39:04.036Z,86.47
2018-05-25T23:41:29.905Z,85.76
2018-05-25T23:43:55.772Z,85.66
2018-05-25T23:46:21.614Z,86.29
2018-05-25T23:48:47.465Z,86.64
2018-05-25T23:51:13.317Z,87.51
2018-05-25T23:53:39.181Z,87.43
2018-05-25T23:56:05.078Z,86.92
2018-05-25T23:58:30.915Z,86.52
